Time;durP1;ratioP1;P1;durP2;ratioP2;P2;SDS_P1;SDS_P2;PMS_P1;PMS_P2;Temp;Humidity;BMP_temperature;BMP_pressure;BME280_temperature;BME280_humidity;BME280_pressure;Samples;Min_cycle;Max_cycle;Signal;HPM_P1;HPM_P2
2021/06/28 00:01:01;;;;;;;9.25;8.25;;;17.60;99.90;;;;;;4975198;28;20186;-88
2021/06/28 00:03:27;;;;;;;14.25;8.90;;;;;;;;;;4974372;28;20516;-89
2021/06/28 00:05:52;;;;;;;10.35;8.38;;;17.70;99.90;;;;;;4973862;28;20628;-90
2021/06/28 00:08:18;;;;;;;9.90;8.13;;;;;;;;;;4973767;28;20257;-89
2021/06/28 00:10:44;;;;;;;14.23;8.38;;;17.70;99.90;;;;;;4973436;28;20328;-89
2021/06/28 00:13:10;;;;;;;13.73;9.30;;;17.50;99.90;;;;;;4973731;28;20262;-88
2021/06/28 00:15:39;;;;;;;12.48;9.35;;;;;;;;;;4973693;28;20190;-89
2021/06/28 00:18:06;;;;;;;13.50;8.45;;;17.00;99.90;;;;;;4974940;28;20226;-90
2021/06/28 00:20:33;;;;;;;15.02;9.48;;;17.20;99.90;;;;;;4973464;28;20209;-91
2021/06/28 00:22:59;;;;;;;13.73;9.07;;;17.40;99.90;;;;;;4973283;28;20186;-91
2021/06/28 00:25:25;;;;;;;12.10;9.07;;;17.30;99.90;;;;;;4975113;28;20182;-90
2021/06/28 00:27:51;;;;;;;13.50;9.43;;;;;;;;;;4973130;28;20178;-90
2021/06/28 00:30:19;;;;;;;16.73;9.65;;;17.20;99.90;;;;;;4973299;28;20218;-90
2021/06/28 00:32:45;;;;;;;14.07;9.30;;;17.40;99.90;;;;;;4973933;28;20190;-88
2021/06/28 00:35:12;;;;;;;12.07;9.45;;;16.80;99.90;;;;;;4973484;28;20233;-90
2021/06/28 00:37:38;;;;;;;17.60;9.35;;;16.90;99.90;;;;;;4973374;28;20179;-90
2021/06/28 00:40:06;;;;;;;11.45;9.05;;;17.10;99.90;;;;;;4957312;28;20245;-89
2021/06/28 00:42:32;;;;;;;13.27;9.88;;;17.40;99.90;;;;;;4973258;28;20184;-89
2021/06/28 00:44:58;;;;;;;12.60;9.40;;;;;;;;;;4973039;28;20216;-90
2021/06/28 00:47:24;;;;;;;11.98;9.43;;;17.00;99.90;;;;;;4973394;28;20270;-90
2021/06/28 00:49:50;;;;;;;11.35;9.25;;;;;;;;;;4974216;28;20297;-89
2021/06/28 00:52:17;;;;;;;13.98;9.40;;;17.10;99.90;;;;;;4973476;28;20714;-90
2021/06/28 00:54:44;;;;;;;14.30;10.52;;;16.80;99.90;;;;;;4957248;28;20206;-89
2021/06/28 00:57:09;;;;;;;13.27;9.60;;;16.80;99.90;;;;;;4973174;28;20178;-89
2021/06/28 00:59:36;;;;;;;14.82;10.07;;;17.00;99.90;;;;;;4974106;28;20682;-90
2021/06/28 01:02:03;;;;;;;15.32;10.02;;;16.90;99.90;;;;;;4973928;28;20265;-90
2021/06/28 01:04:30;;;;;;;14.18;9.95;;;16.20;99.90;;;;;;4973219;28;20178;-91
2021/06/28 01:06:56;;;;;;;14.25;9.90;;;16.80;99.90;;;;;;4974007;28;20183;-90
2021/06/28 01:09:22;;;;;;;21.65;10.68;;;16.40;99.90;;;;;;4972945;28;20210;-90
2021/06/28 01:11:49;;;;;;;13.02;9.43;;;16.40;99.90;;;;;;4956769;28;20199;-91
2021/06/28 01:14:15;;;;;;;15.38;9.60;;;16.40;99.90;;;;;;4974172;28;20245;-91
2021/06/28 01:16:45;;;;;;;18.25;9.38;;;16.70;99.90;;;;;;4972749;28;20232;-90
2021/06/28 01:19:14;;;;;;;12.82;9.60;;;16.90;99.90;;;;;;4974155;28;20179;-91
2021/06/28 01:21:44;;;;;;;12.85;8.93;;;16.60;99.90;;;;;;4972869;28;20269;-91
2021/06/28 01:24:11;;;;;;;15.18;9.35;;;16.30;99.90;;;;;;4972558;28;20194;-91
2021/06/28 01:26:37;;;;;;;15.18;9.68;;;17.00;99.90;;;;;;4973006;28;20194;-90
2021/06/28 01:29:04;;;;;;;12.88;8.75;;;17.20;99.90;;;;;;4973425;28;20214;-90
2021/06/28 01:31:30;;;;;;;13.68;9.77;;;16.80;99.90;;;;;;4972964;28;20186;-90
2021/06/28 01:33:56;;;;;;;13.77;9.70;;;;;;;;;;4974015;28;20293;-90
2021/06/28 01:36:22;;;;;;;15.60;9.60;;;;;;;;;;4972310;28;20716;-91
2021/06/28 01:38:48;;;;;;;10.95;8.60;;;16.90;99.90;;;;;;4972801;28;20197;-91
2021/06/28 01:41:14;;;;;;;17.90;9.32;;;16.60;99.90;;;;;;4956463;28;20182;-90
2021/06/28 01:43:42;;;;;;;15.80;9.70;;;16.50;99.90;;;;;;4972965;28;20237;-91
2021/06/28 01:46:08;;;;;;;15.57;9.30;;;16.50;99.90;;;;;;4973661;28;20715;-89
2021/06/28 01:48:36;;;;;;;13.77;9.32;;;16.50;99.90;;;;;;4972623;28;20186;-90
2021/06/28 01:51:04;;;;;;;18.02;11.30;;;16.60;99.90;;;;;;4956716;28;20600;-90
2021/06/28 01:53:30;;;;;;;16.50;10.30;;;16.70;99.90;;;;;;4977071;28;20615;-90
2021/06/28 01:55:56;;;;;;;17.02;10.63;;;16.50;99.90;;;;;;4976910;28;20179;-91
2021/06/28 01:58:22;;;;;;;17.27;11.30;;;;;;;;;;4977185;28;20628;-92
2021/06/28 02:00:54;;;;;;;20.25;11.50;;;16.20;99.90;;;;;;4975790;28;20233;-88
2021/06/28 02:03:23;;;;;;;24.33;12.80;;;16.40;99.90;;;;;;4977445;28;20158;-89
2021/06/28 02:05:52;;;;;;;21.35;12.45;;;16.70;99.90;;;;;;4975696;28;20249;-88
2021/06/28 02:08:20;;;;;;;18.35;11.43;;;16.10;99.90;;;;;;4977252;28;20204;-89
2021/06/28 02:10:49;;;;;;;21.30;11.55;;;16.50;99.90;;;;;;4977150;28;20194;-89
2021/06/28 02:13:23;;;;;;;20.75;10.93;;;16.30;99.90;;;;;;4975941;28;20213;-88
2021/06/28 02:15:49;;;;;;;20.10;13.00;;;;;;;;;;4977165;28;20242;-87
2021/06/28 02:18:15;;;;;;;21.27;13.00;;;16.20;99.90;;;;;;4960073;28;20178;-89
2021/06/28 02:20:41;;;;;;;20.42;12.23;;;;;;;;;;4977041;28;20700;-89
2021/06/28 02:23:35;;;;;;;20.75;11.82;;;16.20;99.90;;;;;;4975435;28;20205;-89
2021/06/28 02:26:06;;;;;;;17.23;11.63;;;16.20;99.90;;;;;;4976709;28;20174;-89
2021/06/28 02:28:35;;;;;;;16.60;11.07;;;16.20;99.90;;;;;;4975721;28;20178;-89
2021/06/28 02:31:02;;;;;;;18.50;12.40;;;16.70;99.90;;;;;;4975231;28;20187;-89
2021/06/28 02:33:28;;;;;;;19.85;12.25;;;15.90;99.90;;;;;;4976599;28;20175;-88
2021/06/28 02:35:54;;;;;;;21.20;12.68;;;;;;;;;;4975055;28;20242;-88
2021/06/28 02:38:20;;;;;;;18.80;12.30;;;16.20;99.90;;;;;;4975489;28;20707;-89
2021/06/28 02:40:46;;;;;;;17.35;11.43;;;16.20;99.90;;;;;;4976358;28;20174;-89
2021/06/28 02:43:12;;;;;;;18.75;12.23;;;;;;;;;;4975149;28;20274;-89
2021/06/28 02:45:38;;;;;;;19.15;12.05;;;16.50;99.90;;;;;;4958947;28;20209;-88
2021/06/28 02:48:05;;;;;;;19.50;12.75;;;16.30;99.90;;;;;;4976187;28;20187;-88
2021/06/28 02:50:31;;;;;;;21.08;12.73;;;15.90;99.90;;;;;;4976259;28;20546;-90
2021/06/28 02:52:56;;;;;;;25.58;12.80;;;15.90;99.90;;;;;;4942985;28;20237;-89
2021/06/28 02:55:22;;;;;;;20.45;12.55;;;16.10;99.90;;;;;;4975495;28;20182;-89
2021/06/28 02:57:48;;;;;;;17.23;12.02;;;;;;;;;;4958934;28;20632;-90
2021/06/28 03:00:16;;;;;;;16.45;12.02;;;15.70;99.90;;;;;;4976247;28;20198;-89
2021/06/28 03:02:42;;;;;;;18.70;12.75;;;16.20;99.90;;;;;;4974756;28;20182;-89
2021/06/28 03:05:09;;;;;;;18.05;12.43;;;16.40;99.90;;;;;;4975881;28;20238;-88
2021/06/28 03:07:35;;;;;;;21.08;13.15;;;16.30;99.90;;;;;;4975193;28;20187;-89
2021/06/28 03:10:06;;;;;;;18.90;13.25;;;16.30;99.90;;;;;;4974552;28;20687;-90
2021/06/28 03:12:32;;;;;;;21.33;13.45;;;16.30;99.90;;;;;;4976710;28;20167;-89
2021/06/28 03:14:58;;;;;;;20.50;12.60;;;;;;;;;;4974571;28;20628;-91
2021/06/28 03:17:24;;;;;;;20.50;12.90;;;16.00;99.90;;;;;;4975048;28;20592;-91
2021/06/28 03:19:50;;;;;;;19.92;13.57;;;16.40;99.90;;;;;;4958856;28;20221;-90
2021/06/28 03:22:16;;;;;;;26.45;14.23;;;;;;;;;;4942519;28;20209;-91
2021/06/28 03:24:43;;;;;;;21.05;13.57;;;16.30;99.90;;;;;;4976007;28;20266;-89
2021/06/28 03:27:09;;;;;;;21.30;14.38;;;16.30;99.90;;;;;;4975676;28;20273;-89
2021/06/28 03:29:35;;;;;;;21.77;14.23;;;;;;;;;;4974917;28;20334;-91
2021/06/28 03:32:01;;;;;;;21.38;15.18;;;16.40;99.90;;;;;;4974386;28;20182;-90
2021/06/28 03:34:27;;;;;;;25.15;15.07;;;;;;;;;;4975891;28;20620;-89
2021/06/28 03:36:52;;;;;;;25.98;14.35;;;16.30;99.90;;;;;;4974229;28;20234;-89
2021/06/28 03:39:18;;;;;;;23.73;14.40;;;16.60;99.90;;;;;;4975755;28;20263;-89
2021/06/28 03:41:44;;;;;;;20.20;13.60;;;;;;;;;;4974640;28;20273;-89
2021/06/28 03:44:10;;;;;;;25.10;13.82;;;;;;;;;;4975670;28;20643;-89
2021/06/28 03:46:36;;;;;;;22.73;14.77;;;;;;;;;;4975611;28;20225;-89
2021/06/28 03:49:02;;;;;;;26.83;14.48;;;;;;;;;;4974117;28;20280;-89
2021/06/28 03:51:28;;;;;;;20.52;13.45;;;;;;;;;;4958453;28;20257;-90
2021/06/28 03:53:54;;;;;;;23.38;13.43;;;16.90;99.90;;;;;;4974856;28;20274;-90
2021/06/28 03:56:19;;;;;;;21.02;13.13;;;16.70;99.90;;;;;;4973999;28;20615;-90
2021/06/28 03:58:45;;;;;;;24.15;14.73;;;;;;;;;;4974029;28;20663;-89
2021/06/28 04:01:11;;;;;;;24.65;15.00;;;16.70;99.90;;;;;;4975176;28;20266;-89
2021/06/28 04:03:38;;;;;;;24.42;14.65;;;;;;;;;;4975019;28;20257;-89
2021/06/28 04:06:06;;;;;;;28.58;15.27;;;17.50;99.90;;;;;;4973780;28;20233;-89
2021/06/28 04:08:33;;;;;;;23.90;14.45;;;17.20;99.90;;;;;;4975197;28;20210;-89
2021/06/28 04:10:59;;;;;;;21.88;14.05;;;17.70;99.90;;;;;;4957983;28;20186;-88
2021/06/28 04:13:25;;;;;;;25.85;14.52;;;17.30;99.90;;;;;;4958051;28;20551;-89
2021/06/28 04:15:51;;;;;;;23.73;13.45;;;17.50;99.90;;;;;;4957432;28;20182;-89
2021/06/28 04:18:17;;;;;;;22.73;13.10;;;17.80;99.90;;;;;;4973762;28;20214;-89
2021/06/28 04:20:43;;;;;;;17.02;11.85;;;17.30;99.90;;;;;;4975157;28;20618;-89
2021/06/28 04:23:09;;;;;;;18.67;12.32;;;;;;;;;;4974828;28;20258;-89
2021/06/28 04:25:35;;;;;;;18.52;11.90;;;17.60;99.90;;;;;;4973751;28;20186;-89
2021/06/28 04:28:02;;;;;;;21.02;11.60;;;;;;;;;;4973528;28;20265;-87
2021/06/28 04:30:27;;;;;;;16.00;10.80;;;17.60;99.90;;;;;;4973985;28;20210;-88
2021/06/28 04:32:53;;;;;;;19.17;11.95;;;17.70;99.90;;;;;;4975134;28;20194;-89
2021/06/28 04:35:22;;;;;;;15.95;10.68;;;17.90;99.90;;;;;;4974351;28;20280;-88
2021/06/28 04:37:48;;;;;;;17.92;10.68;;;17.90;99.90;;;;;;4974858;28;20171;-89
2021/06/28 04:40:17;;;;;;;17.73;11.23;;;18.40;99.90;;;;;;4956981;28;20244;-90
2021/06/28 04:42:43;;;;;;;17.23;9.85;;;17.70;99.90;;;;;;4973917;28;20261;-89
2021/06/28 04:45:11;;;;;;;15.55;10.43;;;18.00;99.90;;;;;;4974803;28;20187;-88
2021/06/28 04:47:37;;;;;;;20.48;10.80;;;18.30;99.90;;;;;;4973462;28;20560;-88
2021/06/28 04:50:05;;;;;;;16.42;10.68;;;18.50;99.90;;;;;;4974663;28;20308;-87
2021/06/28 04:52:32;;;;;;;15.23;9.90;;;18.50;99.90;;;;;;4973499;28;20262;-88
2021/06/28 04:55:02;;;;;;;18.55;9.68;;;18.90;99.90;;;;;;4974330;28;20237;-89
2021/06/28 04:57:28;;;;;;;16.05;9.75;;;18.50;99.90;;;;;;4974205;28;20174;-88
2021/06/28 04:59:54;;;;;;;15.32;9.80;;;18.60;99.90;;;;;;4974661;28;20274;-89
2021/06/28 05:02:19;;;;;;;14.80;9.65;;;18.60;99.90;;;;;;4974327;28;20234;-88
2021/06/28 05:04:47;;;;;;;17.27;9.85;;;;;;;;;;4973111;28;20182;-88
2021/06/28 05:07:16;;;;;;;17.80;10.38;;;18.90;99.90;;;;;;4974055;28;20170;-90
2021/06/28 05:09:44;;;;;;;11.98;9.30;;;19.00;99.90;;;;;;4973466;28;20667;-89
2021/06/28 05:12:10;;;;;;;14.02;9.77;;;19.20;99.90;;;;;;4972248;28;20213;-89
2021/06/28 05:14:36;;;;;;;20.00;9.82;;;19.30;99.90;;;;;;4973185;28;20190;-87
2021/06/28 05:17:02;;;;;;;15.27;10.05;;;;;;;;;;4973909;28;20632;-88
2021/06/28 05:19:28;;;;;;;12.90;9.90;;;19.80;99.90;;;;;;4974003;28;20703;-88
2021/06/28 05:21:54;;;;;;;18.42;9.65;;;;;;;;;;4973125;28;20302;-88
2021/06/28 05:24:19;;;;;;;14.07;10.80;;;19.70;99.90;;;;;;4974632;28;20640;-87
2021/06/28 05:26:45;;;;;;;14.85;10.43;;;20.30;99.90;;;;;;4975193;28;20183;-88
2021/06/28 05:29:11;;;;;;;16.65;9.23;;;;;;;;;;4976092;28;20217;-87
2021/06/28 05:31:37;;;;;;;11.48;8.00;;;;;;;;;;4975958;28;20191;-88
2021/06/28 05:34:03;;;;;;;11.77;7.47;;;20.40;99.90;;;;;;4959903;28;20663;-89
2021/06/28 05:36:29;;;;;;;12.30;7.60;;;20.90;99.90;;;;;;4976975;28;20238;-90
2021/06/28 05:38:55;;;;;;;13.38;7.47;;;;;;;;;;4977268;28;20183;-89
2021/06/28 05:41:20;;;;;;;12.35;7.75;;;20.80;99.90;;;;;;4976932;28;20189;-90
2021/06/28 05:43:46;;;;;;;14.43;7.00;;;;;;;;;;4976843;28;20174;-90
2021/06/28 05:46:13;;;;;;;15.02;7.07;;;;;;;;;;4976814;28;20752;-89
2021/06/28 05:48:39;;;;;;;13.02;6.25;;;;;;;;;;4976836;28;20178;-89
2021/06/28 05:51:05;;;;;;;7.78;4.45;;;;;;;;;;4975846;28;20187;-89
2021/06/28 05:53:33;;;;;;;9.50;4.93;;;;;;;;;;4976658;28;20623;-89
2021/06/28 05:55:59;;;;;;;7.10;5.03;;;;;;;;;;4976803;28;20221;-89
2021/06/28 05:58:27;;;;;;;8.98;6.05;;;;;;;;;;4975306;28;20190;-88
2021/06/28 06:00:53;;;;;;;6.95;5.28;;;;;;;;;;4976086;28;20185;-89
2021/06/28 06:03:19;;;;;;;10.85;5.53;;;;;;;;;;4975933;28;20183;-88
2021/06/28 06:05:45;;;;;;;9.18;5.15;;;;;;;;;;4975931;28;20191;-89
2021/06/28 06:08:11;;;;;;;6.53;4.05;;;;;;;;;;4975628;28;20209;-89
2021/06/28 06:10:37;;;;;;;5.20;4.10;;;;;;;;;;4959306;28;20698;-89
2021/06/28 06:13:03;;;;;;;6.43;4.45;;;;;;;;;;4977039;28;20191;-89
2021/06/28 06:15:30;;;;;;;6.13;4.50;;;;;;;;;;4974050;28;20237;-89
2021/06/28 06:17:56;;;;;;;7.15;4.70;;;;;;;;;;4975870;28;20182;-88
2021/06/28 06:20:22;;;;;;;7.22;4.50;;;;;;;;;;4976627;28;20564;-91
2021/06/28 06:22:48;;;;;;;5.47;4.15;;;22.00;99.90;;;;;;4976256;28;20210;-88
2021/06/28 06:25:14;;;;;;;10.35;4.00;;;;;;;;;;4977730;28;20182;-88
2021/06/28 06:27:41;;;;;;;5.47;4.25;;;;;;;;;;4982420;28;20183;-88
2021/06/28 06:30:08;;;;;;;5.35;4.00;;;22.20;99.90;;;;;;4976882;28;20206;-89
2021/06/28 06:32:34;;;;;;;5.32;4.28;;;;;;;;;;4978026;28;20214;-89
2021/06/28 06:35:00;;;;;;;6.00;4.20;;;;;;;;;;4974448;28;20262;-88
2021/06/28 06:37:26;;;;;;;7.38;4.13;;;;;;;;;;4975058;28;20166;-86
2021/06/28 06:39:52;;;;;;;9.30;6.20;;;;;;;;;;4984928;28;20205;-87
2021/06/28 06:42:19;;;;;;;7.50;5.70;;;;;;;;;;4984938;28;20418;-85
2021/06/28 06:44:45;;;;;;;7.57;6.10;;;;;;;;;;4988646;28;20187;-88
2021/06/28 06:47:11;;;;;;;10.77;6.20;;;;;;;;;;4981902;28;20258;-89
2021/06/28 06:49:37;;;;;;;8.70;6.50;;;;;;;;;;4977036;28;20220;-90
2021/06/28 06:52:03;;;;;;;7.68;5.55;;;;;;;;;;4977497;28;20210;-88
2021/06/28 06:54:29;;;;;;;6.78;4.70;;;;;;;;;;4975984;28;20182;-87
2021/06/28 06:56:55;;;;;;;9.98;4.70;;;;;;;;;;4974576;28;20181;-90
2021/06/28 06:59:21;;;;;;;4.43;4.00;;;;;;;;;;4975340;28;20182;-87
2021/06/28 07:01:47;;;;;;;6.88;4.95;;;;;;;;;;4974433;28;20205;-88
2021/06/28 07:04:14;;;;;;;6.32;4.15;;;;;;;;;;4974878;28;20178;-88
2021/06/28 07:06:41;;;;;;;4.70;3.60;;;22.60;99.90;;;;;;4973958;28;20178;-89
2021/06/28 07:09:07;;;;;;;7.95;3.70;;;;;;;;;;4974574;28;20301;-88
2021/06/28 07:11:33;;;;;;;4.30;3.22;;;;;;;;;;4973616;28;20217;-88
2021/06/28 07:13:59;;;;;;;4.82;3.47;;;;;;;;;;4973886;28;20186;-89
2021/06/28 07:16:30;;;;;;;4.90;3.10;;;22.90;99.90;;;;;;4974421;28;20233;-89
2021/06/28 07:19:00;;;;;;;6.70;2.90;;;22.70;99.90;;;;;;4973699;28;20249;-88
2021/06/28 07:21:27;;;;;;;3.85;2.70;;;22.70;99.90;;;;;;4973446;28;20250;-91
2021/06/28 07:23:54;;;;;;;6.95;2.63;;;;;;;;;;4973948;28;20171;-89
2021/06/28 07:26:21;;;;;;;4.15;2.58;;;22.90;99.40;;;;;;4973686;28;20174;-89
2021/06/28 07:28:47;;;;;;;5.43;2.80;;;22.90;99.20;;;;;;4972982;28;20190;-88
2021/06/28 07:31:14;;;;;;;5.05;2.80;;;;;;;;;;4957503;28;20194;-89
2021/06/28 07:33:41;;;;;;;6.82;3.17;;;;;;;;;;4975117;28;20186;-89
2021/06/28 07:36:08;;;;;;;5.68;2.97;;;23.20;98.80;;;;;;4974319;28;20241;-89
2021/06/28 07:38:34;;;;;;;4.18;2.88;;;;;;;;;;4975471;28;20258;-89
2021/06/28 07:41:00;;;;;;;4.63;2.65;;;;;;;;;;4958629;28;20182;-89
2021/06/28 07:43:27;;;;;;;3.30;2.58;;;23.40;99.10;;;;;;4974091;28;20219;-89
2021/06/28 07:45:54;;;;;;;4.82;2.45;;;;;;;;;;4975663;28;20187;-87
2021/06/28 07:48:20;;;;;;;4.95;2.83;;;;;;;;;;4973658;28;20183;-90
2021/06/28 07:50:47;;;;;;;3.90;3.20;;;23.70;99.00;;;;;;4973336;28;20683;-90
2021/06/28 07:53:14;;;;;;;4.30;2.75;;;23.90;97.20;;;;;;4975707;28;20175;-90
2021/06/28 07:55:41;;;;;;;30.65;4.65;;;24.20;99.90;;;;;;4957885;28;20187;-89
2021/06/28 07:58:07;;;;;;;4.10;2.85;;;;;;;;;;4975483;28;20239;-89
2021/06/28 08:00:33;;;;;;;2.60;2.40;;;23.90;99.90;;;;;;4973735;28;20243;-91
2021/06/28 08:03:00;;;;;;;4.20;2.58;;;;;;;;;;4958024;28;20189;-91
2021/06/28 08:05:26;;;;;;;3.85;2.60;;;;;;;;;;4957483;28;20233;-89
2021/06/28 08:07:52;;;;;;;3.35;2.85;;;;;;;;;;4973183;28;20533;-88
2021/06/28 08:10:18;;;;;;;3.15;2.80;;;;;;;;;;4975090;28;20202;-88
2021/06/28 08:12:45;;;;;;;5.53;2.65;;;;;;;;;;4973536;28;20198;-89
2021/06/28 08:15:15;;;;;;;6.97;2.72;;;24.00;94.90;;;;;;4958057;28;20190;-89
2021/06/28 08:17:41;;;;;;;4.32;2.33;;;;;;;;;;4974851;28;20265;-90
2021/06/28 08:20:08;;;;;;;6.65;2.47;;;23.90;95.30;;;;;;4974709;28;20269;-89
2021/06/28 08:22:35;;;;;;;3.20;2.70;;;;;;;;;;4973193;28;20182;-89
2021/06/28 08:25:01;;;;;;;2.72;2.50;;;;;;;;;;4974641;28;20229;-86
2021/06/28 08:27:27;;;;;;;5.38;3.17;;;;;;;;;;4973316;28;20284;-89
2021/06/28 08:29:53;;;;;;;5.63;2.90;;;;;;;;;;4973644;28;20233;-89
2021/06/28 08:32:19;;;;;;;4.90;2.78;;;;;;;;;;4957754;28;20301;-87
2021/06/28 08:34:45;;;;;;;4.00;2.40;;;;;;;;;;4972920;28;20206;-89
2021/06/28 08:37:11;;;;;;;3.95;2.30;;;;;;;;;;4974561;28;20167;-87
2021/06/28 08:39:37;;;;;;;4.80;2.55;;;;;;;;;;4972931;28;20644;-88
2021/06/28 08:42:06;;;;;;;4.57;2.83;;;24.50;94.50;;;;;;4974606;28;20178;-88
2021/06/28 08:44:33;;;;;;;4.57;2.88;;;24.60;94.10;;;;;;4957199;28;20598;-87
2021/06/28 08:46:59;;;;;;;4.63;2.63;;;;;;;;;;4975042;28;20234;-88
2021/06/28 08:49:25;;;;;;;5.75;2.97;;;;;;;;;;4974253;28;20210;-87
2021/06/28 08:51:52;;;;;;;4.30;2.65;;;;;;;;;;4972940;28;20583;-87
2021/06/28 08:54:18;;;;;;;2.40;2.20;;;;;;;;;;4974220;28;20635;-91
2021/06/28 08:56:46;;;;;;;3.05;2.45;;;24.80;94.40;;;;;;4973032;28;20175;-88
2021/06/28 08:59:12;;;;;;;4.57;2.40;;;24.90;94.40;;;;;;4972968;28;20190;-86
2021/06/28 09:01:39;;;;;;;2.53;2.33;;;;;;;;;;4972525;28;20224;-87
2021/06/28 09:04:06;;;;;;;2.60;2.40;;;25.20;94.70;;;;;;4974616;28;20240;-87
2021/06/28 09:06:33;;;;;;;6.07;2.17;;;25.10;93.50;;;;;;4972753;28;20206;-87
2021/06/28 09:09:10;;;;;;;3.13;2.20;;;24.40;98.50;;;;;;4973042;28;20218;-88
2021/06/28 09:11:38;;;;;;;5.35;2.30;;;24.60;93.30;;;;;;4974153;28;20166;-88
2021/06/28 09:14:07;;;;;;;10.50;2.75;;;24.50;95.50;;;;;;4973929;28;20639;-87
2021/06/28 09:16:34;;;;;;;3.30;2.40;;;24.70;94.90;;;;;;4973972;28;20253;-89
2021/06/28 09:19:10;;;;;;;5.20;1.98;;;24.70;93.90;;;;;;4973024;28;20186;-88
2021/06/28 09:21:45;;;;;;;3.50;2.40;;;25.00;99.90;;;;;;4972244;28;20178;-89
2021/06/28 09:24:31;;;;;;;3.20;1.88;;;24.90;95.00;;;;;;4973237;28;20547;-87
2021/06/28 09:27:17;;;;;;;2.80;2.30;;;24.80;94.70;;;;;;4972312;28;20178;-87
2021/06/28 09:29:52;;;;;;;5.68;2.17;;;24.70;94.10;;;;;;4971033;28;20288;-88
2021/06/28 09:32:20;;;;;;;2.70;2.47;;;24.50;94.50;;;;;;4972090;28;20639;-88
2021/06/28 09:34:48;;;;;;;3.90;2.30;;;24.60;95.10;;;;;;4970410;28;20520;-87
2021/06/28 09:37:16;;;;;;;3.83;2.17;;;24.80;96.10;;;;;;4972166;28;20173;-88
2021/06/28 09:39:49;;;;;;;3.65;2.42;;;24.70;93.30;;;;;;4971611;28;20273;-87
2021/06/28 09:42:21;;;;;;;3.60;2.50;;;25.00;94.10;;;;;;4971745;28;20551;-87
2021/06/28 09:44:54;;;;;;;4.82;2.78;;;25.20;97.90;;;;;;4972025;28;20198;-88
2021/06/28 09:47:26;;;;;;;3.88;2.83;;;25.00;99.30;;;;;;4971531;28;20186;-88
2021/06/28 09:50:15;;;;;;;3.00;2.47;;;25.20;99.90;;;;;;4972310;28;20233;-88
2021/06/28 09:52:52;;;;;;;6.32;2.72;;;25.00;94.10;;;;;;4971424;28;20190;-87
2021/06/28 09:55:34;;;;;;;3.65;2.63;;;24.90;98.70;;;;;;4973954;28;20253;-88
2021/06/28 09:58:13;;;;;;;4.97;2.47;;;25.30;95.30;;;;;;4972543;28;20245;-87
2021/06/28 10:00:39;;;;;;;3.78;2.47;;;;;;;;;;4973799;28;20182;-87
2021/06/28 10:03:06;;;;;;;5.25;2.60;;;;;;;;;;4973886;28;20190;-86
2021/06/28 10:05:55;;;;;;;2.53;2.33;;;25.50;93.50;;;;;;4973909;28;20193;-87
2021/06/28 10:08:21;;;;;;;3.22;2.42;;;;;;;;;;4959200;28;20187;-86
2021/06/28 10:10:47;;;;;;;3.30;2.08;;;;;;;;;;4972158;28;20234;-87
2021/06/28 10:13:13;;;;;;;7.07;2.38;;;;;;;;;;4973958;28;20584;-87
2021/06/28 10:15:42;;;;;;;2.92;2.25;;;25.30;92.80;;;;;;4975690;28;20591;-87
2021/06/28 10:18:10;;;;;;;5.63;2.50;;;25.00;92.70;;;;;;4975052;28;20183;-88
2021/06/28 10:20:42;;;;;;;5.88;3.10;;;24.80;92.60;;;;;;4976068;28;20186;-88
2021/06/28 10:23:08;;;;;;;3.20;2.58;;;;;;;;;;4975915;28;20181;-87
2021/06/28 10:25:34;;;;;;;4.43;2.95;;;24.50;93.20;;;;;;4974887;28;20648;-87
2021/06/28 10:28:01;;;;;;;4.68;3.38;;;;;;;;;;4974177;28;20269;-87
2021/06/28 10:30:27;;;;;;;5.18;2.83;;;24.30;93.80;;;;;;4975971;28;20202;-88
2021/06/28 10:33:22;;;;;;;2.60;2.40;;;24.80;99.00;;;;;;4975599;28;20221;-88
2021/06/28 10:35:48;;;;;;;5.05;2.95;;;;;;;;;;4972467;28;20222;-87
2021/06/28 10:38:15;;;;;;;4.57;2.45;;;;;;;;;;4975907;28;20648;-88
2021/06/28 10:40:59;;;;;;;4.85;2.60;;;25.80;97.10;;;;;;4975677;28;20187;-87
2021/06/28 10:43:33;;;;;;;3.78;3.00;;;25.20;93.20;;;;;;4972353;28;20179;-89
2021/06/28 10:46:00;;;;;;;7.40;2.65;;;25.00;93.90;;;;;;4971082;28;20181;-87
2021/06/28 10:48:29;;;;;;;4.20;3.63;;;24.80;93.20;;;;;;4975273;28;20253;-89
2021/06/28 10:51:02;;;;;;;8.38;3.22;;;24.50;99.10;;;;;;4974638;28;20567;-88
2021/06/28 10:53:34;;;;;;;6.13;3.90;;;25.70;96.40;;;;;;4974515;28;20230;-88
2021/06/28 10:56:26;;;;;;;6.10;3.85;;;25.10;96.70;;;;;;4974115;28;20643;-87
2021/06/28 10:58:56;;;;;;;6.20;3.45;;;25.70;95.70;;;;;;4973420;28;20179;-88
2021/06/28 11:01:35;;;;;;;4.43;2.95;;;26.40;94.30;;;;;;4973995;28;20640;-89
2021/06/28 11:04:06;;;;;;;3.00;2.67;;;25.60;94.40;;;;;;4973906;28;21160;-87
2021/06/28 11:06:32;;;;;;;4.43;3.30;;;;;;;;;;4975540;28;20269;-88
2021/06/28 11:09:10;;;;;;;6.40;2.85;;;25.60;96.20;;;;;;4974319;28;20232;-88
2021/06/28 11:11:45;;;;;;;3.97;2.80;;;25.70;91.70;;;;;;4971429;28;20644;-88
2021/06/28 11:14:11;;;;;;;6.85;2.70;;;;;;;;;;4975255;28;20183;-90
2021/06/28 11:16:38;;;;;;;7.13;2.53;;;;;;;;;;4975518;28;20182;-89
2021/06/28 11:19:42;;;;;;;3.53;2.60;;;25.80;94.90;;;;;;4975336;28;20183;-88
2021/06/28 11:22:33;;;;;;;2.85;2.22;;;26.10;95.70;;;;;;4972168;28;20647;-89
2021/06/28 11:25:08;;;;;;;3.80;2.15;;;26.10;92.90;;;;;;4974329;28;20173;-89
2021/06/28 11:27:38;;;;;;;4.53;2.42;;;26.20;91.20;;;;;;4975280;28;20206;-88
2021/06/28 11:30:16;;;;;;;2.78;2.13;;;26.30;85.40;;;;;;4974993;28;20194;-89
2021/06/28 11:33:06;;;;;;;2.95;2.15;;;26.40;92.80;;;;;;4972906;28;20182;-90
2021/06/28 11:35:52;;;;;;;3.83;2.50;;;25.60;93.30;;;;;;4975041;28;20226;-88
2021/06/28 11:38:36;;;;;;;4.32;2.60;;;25.80;88.00;;;;;;4973307;28;20545;-88
2021/06/28 11:41:03;;;;;;;5.47;2.30;;;26.00;89.60;;;;;;4974618;28;20258;-86
2021/06/28 11:43:36;;;;;;;2.55;2.20;;;26.50;93.00;;;;;;4974905;28;20250;-87
2021/06/28 11:46:03;;;;;;;2.75;2.50;;;26.00;92.50;;;;;;4973237;28;20179;-87
2021/06/28 11:48:41;;;;;;;3.78;2.13;;;26.30;82.50;;;;;;4973492;28;20262;-86
2021/06/28 11:51:16;;;;;;;4.18;2.30;;;26.30;84.30;;;;;;4972493;28;20282;-87
2021/06/28 11:53:42;;;;;;;7.72;2.55;;;;;;;;;;4974283;28;20233;-87
2021/06/28 11:56:18;;;;;;;2.58;2.30;;;26.80;83.30;;;;;;4972931;28;20574;-87
2021/06/28 11:58:55;;;;;;;2.47;2.28;;;27.00;91.70;;;;;;4975059;28;20173;-88
2021/06/28 12:01:26;;;;;;;2.50;2.28;;;26.30;90.50;;;;;;4973556;28;20190;-89
2021/06/28 12:03:52;;;;;;;2.13;1.90;;;;;;;;;;4956989;28;20217;-89
2021/06/28 12:06:19;;;;;;;8.75;2.33;;;;;;;;;;4974224;28;20743;-87
2021/06/28 12:08:45;;;;;;;2.72;1.95;;;;;;;;;;4973610;28;20189;-88
2021/06/28 12:11:12;;;;;;;2.22;2.03;;;25.60;82.50;;;;;;4973925;28;20225;-90
2021/06/28 12:13:41;;;;;;;2.97;1.90;;;25.80;80.80;;;;;;4973999;28;20546;-86
2021/06/28 12:16:19;;;;;;;4.93;2.10;;;26.00;90.30;;;;;;4971383;28;20166;-88
2021/06/28 12:19:00;;;;;;;2.67;2.00;;;25.80;79.40;;;;;;4966387;28;20570;-89
2021/06/28 12:21:31;;;;;;;4.18;2.10;;;26.10;91.70;;;;;;4971276;28;20181;-89
2021/06/28 12:24:18;;;;;;;11.63;2.63;;;25.80;90.00;;;;;;4973950;28;20194;-89
2021/06/28 12:27:01;;;;;;;6.50;2.30;;;25.80;93.30;;;;;;4971847;28;20170;-88
2021/06/28 12:29:43;;;;;;;3.63;2.35;;;25.90;93.20;;;;;;4972262;28;20198;-85
2021/06/28 12:32:15;;;;;;;3.50;2.55;;;25.40;92.80;;;;;;4971167;28;20628;-88
2021/06/28 12:34:46;;;;;;;2.63;2.42;;;25.90;93.30;;;;;;4970827;28;20170;-87
2021/06/28 12:37:12;;;;;;;2.55;2.35;;;;;;;;;;4972146;28;20237;-87
2021/06/28 12:39:38;;;;;;;4.32;2.40;;;25.10;93.30;;;;;;4972856;28;20218;-87
2021/06/28 12:42:13;;;;;;;4.10;2.25;;;25.60;93.20;;;;;;4974052;28;20209;-88
2021/06/28 12:44:39;;;;;;;3.83;2.40;;;25.60;85.70;;;;;;4974099;28;20188;-89
2021/06/28 12:47:06;;;;;;;5.13;2.40;;;25.90;92.60;;;;;;4956840;28;20190;-88
2021/06/28 12:49:32;;;;;;;3.20;2.40;;;;;;;;;;4974467;28;20199;-87
2021/06/28 12:52:33;;;;;;;7.00;2.13;;;26.40;93.00;;;;;;4973234;28;20187;-86
2021/06/28 12:55:13;;;;;;;3.90;2.08;;;26.20;84.40;;;;;;4972415;28;20545;-88
2021/06/28 12:57:42;;;;;;;3.50;3.15;;;26.20;82.20;;;;;;4972160;28;20178;-88
2021/06/28 13:00:19;;;;;;;2.55;2.10;;;26.30;83.30;;;;;;4972177;28;20187;-89
2021/06/28 13:03:04;;;;;;;4.75;2.40;;;26.30;91.70;;;;;;4973884;28;20181;-89
2021/06/28 13:05:34;;;;;;;5.75;2.20;;;26.40;92.10;;;;;;4972936;28;20174;-89
2021/06/28 13:08:15;;;;;;;3.85;2.42;;;26.30;84.60;;;;;;4972966;28;20187;-90
2021/06/28 13:10:53;;;;;;;9.10;2.75;;;26.10;84.10;;;;;;4982398;28;20271;-89
2021/06/28 13:13:38;;;;;;;4.57;2.25;;;25.90;85.80;;;;;;4977845;28;20167;-89
2021/06/28 13:16:30;;;;;;;5.60;2.45;;;25.90;85.20;;;;;;4970245;28;20194;-90
2021/06/28 13:19:02;;;;;;;3.33;2.30;;;25.90;83.90;;;;;;4971859;28;20273;-90
2021/06/28 13:21:30;;;;;;;5.55;2.17;;;26.10;84.60;;;;;;4975014;28;20187;-88
2021/06/28 13:23:57;;;;;;;2.72;2.25;;;23.40;78.80;;;;;;4972541;28;20181;-88